Omidiyeh, Iran
Current Conditions -  °F | °C
As of 7:00 PM on Thursday 29 Jan 2015 (Local Time) from OIAG Reporting Station
Clear Clear  
Wind Chill: 22°   Ceiling: Unl
Heat Index: 22°   Visibility: 6mi
Dew Point:   Wind: 14mph
Humidity: 33%   Direction: 140°SE
Pressure: 29.94"   Gusts: NA
Location:  30.75°N, 49.71°E
Report Text: OIAG 291600Z 14012KT CAVOK 22/05 Q1014
Loading
Personal Weather Stations






























Interactive Weather Map New forecast layout! Learn more

10-Day Weather Forecast

Advertisements
Track Severe Weather on mobile